Ewan, New Jersey
Current Conditions -  °F | °C
As of 6:54 AM on Friday 19 Dec 2014 (Local Time) from KPHL Reporting Station
Overcast Overcast  
Wind Chill: 30°   Ceiling: 3400
Heat Index: 37°   Visibility: 10mi
Dew Point: 25°   Wind: 10mph
Humidity: 62%   Direction: 290°WNW
Pressure: 30.07"   Gusts: NA
Location:  39.7°N, 75.19°W
Report Text: KPHL 191154Z 29009KT 10SM OVC034 03/M04 A3007 RMK AO2 SLP183 T00281039 10033 20028 53009
Loading
Personal Weather Stations






























Interactive Weather Map New forecast layout! Learn more

10-Day Weather Forecast

Advertisements
Track Severe Weather on mobile